createdAt,value
2022-11-14T00:02:09.685Z,8.90
2022-11-14T00:04:56.351Z,8.80
2022-11-14T00:07:42.805Z,8.90
2022-11-14T00:10:29.355Z,8.80
2022-11-14T00:13:16.496Z,8.90
2022-11-14T00:16:04.534Z,8.80
2022-11-14T00:18:53.946Z,8.80
2022-11-14T00:21:40.785Z,8.80
2022-11-14T00:24:27.628Z,8.80
2022-11-14T00:27:14.074Z,8.70
2022-11-14T00:30:00.416Z,8.70
2022-11-14T00:32:48.152Z,8.70
2022-11-14T00:35:34.967Z,8.70
2022-11-14T00:38:21.545Z,8.70
2022-11-14T00:41:08.188Z,8.70
2022-11-14T00:43:54.742Z,8.70
2022-11-14T00:46:41.156Z,8.60
2022-11-14T00:49:29.104Z,8.60
2022-11-14T00:52:15.738Z,8.60
2022-11-14T00:55:02.079Z,8.60
2022-11-14T00:57:48.666Z,8.50
2022-11-14T01:00:35.441Z,8.50
2022-11-14T01:03:21.925Z,8.50
2022-11-14T01:06:13.831Z,8.50
2022-11-14T01:09:00.727Z,8.50
2022-11-14T01:11:47.585Z,8.50
2022-11-14T01:14:34.103Z,8.50
2022-11-14T01:17:20.643Z,8.50
2022-11-14T01:20:08.064Z,8.50
2022-11-14T01:22:55.774Z,8.50
2022-11-14T01:25:43.633Z,8.50
2022-11-14T01:28:30.390Z,8.40
2022-11-14T01:31:19.420Z,8.40
2022-11-14T01:34:05.784Z,8.40
2022-11-14T01:36:52.381Z,8.40
2022-11-14T01:39:40.050Z,8.40
2022-11-14T01:42:27.684Z,8.40
2022-11-14T01:45:51.552Z,8.40
2022-11-14T01:48:42.918Z,8.40
2022-11-14T01:51:33.385Z,8.40
2022-11-14T01:54:23.972Z,8.40
2022-11-14T01:57:14.051Z,8.30
2022-11-14T02:00:04.936Z,8.40
2022-11-14T02:02:52.055Z,8.30
2022-11-14T02:05:39.358Z,8.30
2022-11-14T02:08:27.454Z,8.30
2022-11-14T02:11:14.323Z,8.30
2022-11-14T02:14:02.764Z,8.30
2022-11-14T02:17:07.720Z,8.30
2022-11-14T02:20:05.781Z,8.30
2022-11-14T02:22:52.750Z,8.30
2022-11-14T02:25:40.392Z,8.20
2022-11-14T02:28:27.793Z,8.20
2022-11-14T02:31:15.356Z,8.20
2022-11-14T02:34:02.330Z,8.20
2022-11-14T02:36:50.529Z,8.20
2022-11-14T02:39:36.986Z,8.10
2022-11-14T02:42:23.585Z,8.10
2022-11-14T02:45:11.687Z,8.10
2022-11-14T02:47:58.191Z,8.10
2022-11-14T02:50:44.657Z,8.10
2022-11-14T02:53:32.571Z,8.10
2022-11-14T02:56:19.329Z,8.10
2022-11-14T02:59:05.961Z,8.10
2022-11-14T03:01:52.424Z,8.10
2022-11-14T03:04:38.869Z,8.10
2022-11-14T03:07:25.623Z,8.10
2022-11-14T03:10:14.016Z,8.10
2022-11-14T03:13:00.639Z,8.10
2022-11-14T03:15:47.522Z,8.00
2022-11-14T03:18:34.193Z,8.00
2022-11-14T03:21:23.135Z,8.00
2022-11-14T03:24:09.947Z,8.00
2022-11-14T03:26:58.050Z,8.00
2022-11-14T03:29:44.843Z,8.00
2022-11-14T03:32:31.236Z,8.00
2022-11-14T03:35:17.926Z,8.00
2022-11-14T03:38:04.642Z,8.00
2022-11-14T03:40:51.577Z,8.00
2022-11-14T03:43:39.783Z,8.00
2022-11-14T03:46:26.158Z,8.00
2022-11-14T03:49:12.719Z,8.00
2022-11-14T03:51:59.376Z,8.00
2022-11-14T03:54:45.847Z,8.00
2022-11-14T03:57:32.392Z,8.00
2022-11-14T04:00:21.300Z,8.00
2022-11-14T04:03:07.815Z,8.00
2022-11-14T04:05:54.247Z,8.00
2022-11-14T04:08:42.089Z,8.00
2022-11-14T04:11:28.838Z,8.00
2022-11-14T04:14:15.396Z,8.00
2022-11-14T04:17:03.623Z,8.00
2022-11-14T04:19:50.415Z,8.00
2022-11-14T04:22:37.036Z,7.90
2022-11-14T04:25:23.526Z,7.90
2022-11-14T04:28:10.136Z,7.90
2022-11-14T04:30:56.680Z,7.90
2022-11-14T04:33:44.340Z,7.90
2022-11-14T04:36:30.933Z,7.90
2022-11-14T04:39:17.421Z,7.90
2022-11-14T04:42:03.920Z,7.80
2022-11-14T04:44:50.437Z,7.80
2022-11-14T04:47:36.939Z,7.80
2022-11-14T04:50:24.704Z,7.90
2022-11-14T04:53:11.383Z,7.80
2022-11-14T04:55:57.688Z,7.80
2022-11-14T04:58:44.073Z,7.80
2022-11-14T05:01:30.631Z,7.80
2022-11-14T05:04:17.143Z,7.80
2022-11-14T05:07:05.318Z,7.80
2022-11-14T05:09:51.899Z,7.80
2022-11-14T05:12:38.446Z,7.80
2022-11-14T05:15:25.215Z,7.80
2022-11-14T05:18:11.785Z,7.80
2022-11-14T05:21:00.051Z,7.70
2022-11-14T05:23:48.060Z,7.80
2022-11-14T05:26:34.964Z,7.80
2022-11-14T05:29:21.604Z,7.80
2022-11-14T05:32:11.142Z,7.80
2022-11-14T05:35:00.301Z,7.70
2022-11-14T05:37:46.768Z,7.70
2022-11-14T05:40:34.727Z,7.70
2022-11-14T05:43:21.383Z,7.70
2022-11-14T05:46:10.387Z,7.70
2022-11-14T05:48:56.788Z,7.70
2022-11-14T05:51:43.455Z,7.70
2022-11-14T05:54:29.816Z,7.60
2022-11-14T05:57:17.737Z,7.70
2022-11-14T06:00:05.060Z,7.60
2022-11-14T06:02:53.717Z,7.60
2022-11-14T06:05:40.355Z,7.60
2022-11-14T06:08:28.766Z,7.60
2022-11-14T06:11:17.168Z,7.60
2022-11-14T06:14:10.441Z,7.60
2022-11-14T06:16:57.728Z,7.60
2022-11-14T06:19:44.198Z,7.60
2022-11-14T06:22:30.853Z,7.60
2022-11-14T06:25:17.441Z,7.60
2022-11-14T06:28:04.125Z,7.60
2022-11-14T06:30:51.996Z,7.60
2022-11-14T06:33:39.009Z,7.60
2022-11-14T06:36:25.678Z,7.60
2022-11-14T06:39:12.456Z,7.50
2022-11-14T06:41:58.865Z,7.50
2022-11-14T06:44:45.279Z,7.50
2022-11-14T06:47:33.073Z,7.50
2022-11-14T06:50:19.780Z,7.50
2022-11-14T06:53:06.227Z,7.50
2022-11-14T06:55:57.184Z,7.50
2022-11-14T06:58:45.731Z,7.60
2022-11-14T07:01:32.431Z,7.60
2022-11-14T07:04:20.284Z,7.50
2022-11-14T07:07:06.878Z,7.50
2022-11-14T07:09:54.363Z,7.50
2022-11-14T07:12:40.952Z,7.50
2022-11-14T07:15:27.745Z,7.50
2022-11-14T07:18:14.545Z,7.50
2022-11-14T07:21:04.602Z,7.50
2022-11-14T07:23:51.445Z,7.50
2022-11-14T07:26:38.603Z,7.50
2022-11-14T07:29:25.388Z,7.50
2022-11-14T07:32:11.918Z,7.50
2022-11-14T07:35:02.141Z,7.50
2022-11-14T07:37:51.286Z,7.50
2022-11-14T07:40:38.214Z,7.50
2022-11-14T07:43:24.958Z,7.50
2022-11-14T07:46:13.327Z,7.60
2022-11-14T07:48:59.903Z,7.60
2022-11-14T07:51:46.317Z,7.60
2022-11-14T07:54:34.245Z,7.60
2022-11-14T07:57:20.707Z,7.50
2022-11-14T08:00:08.922Z,7.50
2022-11-14T08:02:55.241Z,7.50
2022-11-14T08:05:41.582Z,7.50
2022-11-14T08:08:28.568Z,7.50
2022-11-14T08:11:36.855Z,7.50
2022-11-14T08:14:23.516Z,7.50
2022-11-14T08:17:10.034Z,7.50
2022-11-14T08:19:56.579Z,7.50
2022-11-14T08:22:42.900Z,7.50
2022-11-14T08:25:29.514Z,7.50
2022-11-14T08:28:17.422Z,7.50
2022-11-14T08:31:04.964Z,7.50
2022-11-14T08:33:52.919Z,7.50
2022-11-14T08:36:39.612Z,7.50
2022-11-14T08:39:26.423Z,7.50
2022-11-14T08:42:12.771Z,7.50
2022-11-14T08:45:00.659Z,7.60
2022-11-14T08:47:53.178Z,7.60
2022-11-14T08:50:40.182Z,7.60
2022-11-14T08:53:26.666Z,7.60
2022-11-14T08:56:13.556Z,7.60
2022-11-14T08:59:00.095Z,7.60
2022-11-14T09:01:48.182Z,7.60
2022-11-14T09:04:34.709Z,7.60
2022-11-14T09:07:21.449Z,7.60
2022-11-14T09:10:09.416Z,7.70
2022-11-14T09:12:57.821Z,7.70
2022-11-14T09:15:45.000Z,7.70
2022-11-14T09:18:33.334Z,7.70
2022-11-14T09:21:20.370Z,7.80
2022-11-14T09:24:07.204Z,7.70
2022-11-14T09:26:57.016Z,7.70
2022-11-14T09:29:43.942Z,7.70
2022-11-14T09:32:30.399Z,7.80
2022-11-14T09:35:18.448Z,7.80
2022-11-14T09:38:07.414Z,7.80
2022-11-14T09:41:05.309Z,7.80
2022-11-14T09:44:19.162Z,7.80
2022-11-14T09:47:11.013Z,7.80
2022-11-14T09:50:03.261Z,7.80
2022-11-14T09:52:57.171Z,7.90
2022-11-14T09:55:43.702Z,7.90
2022-11-14T09:58:30.680Z,7.90
2022-11-14T10:01:24.995Z,7.90
2022-11-14T10:04:24.129Z,7.90
2022-11-14T10:07:23.487Z,7.90
2022-11-14T10:10:24.692Z,7.90
2022-11-14T10:13:18.795Z,8.00
2022-11-14T10:16:11.989Z,7.90
2022-11-14T10:19:11.730Z,7.90
2022-11-14T10:22:16.325Z,8.00
2022-11-14T10:25:18.839Z,8.00
2022-11-14T10:28:21.004Z,8.00
2022-11-14T10:31:17.804Z,8.00
2022-11-14T10:34:09.313Z,8.10
2022-11-14T10:37:04.201Z,8.10
2022-11-14T10:39:53.973Z,8.10
2022-11-14T10:42:45.701Z,8.10
2022-11-14T10:45:36.987Z,8.10
2022-11-14T10:48:32.249Z,8.10
2022-11-14T10:51:25.815Z,8.20
2022-11-14T10:54:18.976Z,8.20
2022-11-14T10:57:14.446Z,8.30
2022-11-14T11:00:02.441Z,8.30
2022-11-14T11:02:52.084Z,8.30
2022-11-14T11:05:48.309Z,8.30
2022-11-14T11:09:00.304Z,8.40
2022-11-14T11:11:57.938Z,8.40
2022-11-14T11:14:45.384Z,8.40
2022-11-14T11:17:38.476Z,8.40
2022-11-14T11:20:34.049Z,8.40
2022-11-14T11:23:23.892Z,8.40
2022-11-14T11:26:24.418Z,8.40
2022-11-14T11:29:18.199Z,8.50
2022-11-14T11:32:06.403Z,8.50
2022-11-14T11:34:56.394Z,8.50
2022-11-14T11:37:48.124Z,8.50
2022-11-14T11:40:34.741Z,8.50
2022-11-14T11:43:39.493Z,8.60
2022-11-14T11:46:33.297Z,8.60
2022-11-14T11:49:29.204Z,8.60
2022-11-14T11:52:25.043Z,8.70
2022-11-14T11:55:18.928Z,8.70
2022-11-14T11:58:11.960Z,8.70
2022-11-14T12:00:58.488Z,8.70
2022-11-14T12:03:48.929Z,8.80
2022-11-14T12:06:45.991Z,8.70
2022-11-14T12:10:08.958Z,8.70
2022-11-14T12:13:29.505Z,8.70
2022-11-14T12:16:41.682Z,8.70
2022-11-14T12:19:53.921Z,8.70
2022-11-14T12:23:11.369Z,8.70
2022-11-14T12:26:39.396Z,8.70
2022-11-14T12:29:47.554Z,8.60
2022-11-14T12:32:38.008Z,8.60
2022-11-14T12:35:29.438Z,8.60
2022-11-14T12:38:19.609Z,8.60
2022-11-14T12:41:07.523Z,8.60
2022-11-14T12:43:54.090Z,8.60
2022-11-14T12:47:17.674Z,8.60
2022-11-14T12:50:23.924Z,8.60
2022-11-14T12:53:42.146Z,8.60
2022-11-14T12:57:09.881Z,8.70
2022-11-14T13:00:05.686Z,8.70
2022-11-14T13:03:15.296Z,8.70
2022-11-14T13:06:07.065Z,8.70
2022-11-14T13:09:28.332Z,8.70
2022-11-14T13:12:48.955Z,8.70
2022-11-14T13:16:05.339Z,8.80
2022-11-14T13:19:13.022Z,8.80
2022-11-14T13:22:36.056Z,8.80
2022-11-14T13:25:24.607Z,8.80
2022-11-14T13:28:47.896Z,8.80
2022-11-14T13:31:49.836Z,8.90
2022-11-14T13:34:52.949Z,8.90
2022-11-14T13:37:57.908Z,8.90
2022-11-14T13:40:54.786Z,8.90
2022-11-14T13:43:56.883Z,8.90
2022-11-14T13:46:58.679Z,8.90
2022-11-14T13:50:06.364Z,8.90
2022-11-14T13:52:53.395Z,8.90
2022-11-14T13:56:01.629Z,9.00
2022-11-14T13:59:35.577Z,8.90
2022-11-14T14:03:00.436Z,8.90
2022-11-14T14:06:11.697Z,8.90
2022-11-14T14:09:22.510Z,8.90
2022-11-14T14:12:27.844Z,8.90
2022-11-14T14:15:22.305Z,9.00
2022-11-14T14:18:19.188Z,8.90
2022-11-14T14:21:16.200Z,8.90
2022-11-14T14:24:11.921Z,8.90
2022-11-14T14:27:06.989Z,8.90
2022-11-14T14:30:02.121Z,8.90
2022-11-14T14:33:11.043Z,8.90
2022-11-14T14:35:57.720Z,8.90
2022-11-14T14:38:45.834Z,8.90
2022-11-14T14:41:33.371Z,8.80
2022-11-14T14:44:25.290Z,8.80
2022-11-14T14:47:17.549Z,8.80
2022-11-14T14:50:07.828Z,8.80
2022-11-14T14:52:58.880Z,8.70
2022-11-14T14:55:54.019Z,8.70
2022-11-14T14:58:40.820Z,8.70
2022-11-14T15:01:33.775Z,8.70
2022-11-14T15:04:22.737Z,8.70
2022-11-14T15:07:21.301Z,8.60
2022-11-14T15:10:08.937Z,8.60
2022-11-14T15:12:58.165Z,8.60
2022-11-14T15:15:45.318Z,8.60
2022-11-14T15:18:33.599Z,8.60
2022-11-14T15:21:28.253Z,8.50
2022-11-14T15:24:17.362Z,8.50
2022-11-14T15:27:06.482Z,8.50
2022-11-14T15:29:58.523Z,8.50
2022-11-14T15:32:50.671Z,8.40
2022-11-14T15:35:38.567Z,8.40
2022-11-14T15:41:32.503Z,8.40
2022-11-14T15:44:32.110Z,8.30
2022-11-14T15:47:26.131Z,8.30
2022-11-14T15:50:29.585Z,8.30
2022-11-14T15:53:23.604Z,8.30
2022-11-14T15:56:13.084Z,8.20
2022-11-14T15:59:00.052Z,8.20
2022-11-14T16:01:49.727Z,8.20
2022-11-14T16:04:42.945Z,8.10
2022-11-14T16:07:32.865Z,8.10
2022-11-14T16:10:21.731Z,8.10
2022-11-14T16:13:08.188Z,8.10
2022-11-14T16:15:54.740Z,8.10
2022-11-14T16:18:41.425Z,8.00
2022-11-14T16:21:29.750Z,8.00
2022-11-14T16:24:18.794Z,8.00
2022-11-14T16:27:05.714Z,8.10
2022-11-14T16:29:52.558Z,7.90
2022-11-14T16:32:39.673Z,7.90
2022-11-14T16:35:27.611Z,7.90
2022-11-14T16:38:16.438Z,7.90
2022-11-14T16:41:04.824Z,7.90
2022-11-14T16:43:54.622Z,7.80
2022-11-14T16:46:41.375Z,7.80
2022-11-14T16:49:27.921Z,7.80
2022-11-14T16:52:16.488Z,7.80
2022-11-14T16:55:04.559Z,7.70
2022-11-14T16:57:51.141Z,7.70
2022-11-14T17:00:37.435Z,7.70
2022-11-14T17:03:24.093Z,7.70
2022-11-14T17:06:11.182Z,7.60
2022-11-14T17:08:58.874Z,7.60
2022-11-14T17:11:46.784Z,7.60
2022-11-14T17:14:33.939Z,7.60
2022-11-14T17:17:20.313Z,7.60
2022-11-14T17:20:08.579Z,7.60
2022-11-14T17:22:55.815Z,7.50
2022-11-14T17:25:42.668Z,7.50
2022-11-14T17:28:30.824Z,7.50
2022-11-14T17:31:18.077Z,7.50
2022-11-14T17:34:04.879Z,7.50
2022-11-14T17:36:51.360Z,7.50
2022-11-14T17:39:37.982Z,7.40
2022-11-14T17:42:24.659Z,7.50
2022-11-14T17:45:12.656Z,7.40
2022-11-14T17:47:59.289Z,7.40
2022-11-14T17:50:45.754Z,7.40
2022-11-14T17:53:33.770Z,7.40
2022-11-14T17:56:22.857Z,7.40
2022-11-14T17:59:09.560Z,7.30
2022-11-14T18:01:59.930Z,7.30
2022-11-14T18:04:48.654Z,7.30
2022-11-14T18:07:35.492Z,7.30
2022-11-14T18:10:22.604Z,7.20
2022-11-14T18:13:09.973Z,7.30
2022-11-14T18:15:56.503Z,7.20
2022-11-14T18:18:44.893Z,7.20
2022-11-14T18:21:32.007Z,7.20
2022-11-14T18:24:18.779Z,7.20
2022-11-14T18:27:05.512Z,7.10
2022-11-14T18:29:52.385Z,7.10
2022-11-14T18:32:39.032Z,7.10
2022-11-14T18:35:26.895Z,7.10
2022-11-14T18:38:13.321Z,7.00
2022-11-14T18:41:00.819Z,7.00
2022-11-14T18:43:47.765Z,7.00
2022-11-14T18:46:37.334Z,7.00
2022-11-14T18:49:25.215Z,7.00
2022-11-14T18:52:17.355Z,6.90
2022-11-14T18:55:04.820Z,6.90
2022-11-14T18:57:52.197Z,6.90
2022-11-14T19:00:38.923Z,6.90
2022-11-14T19:03:25.549Z,6.90
2022-11-14T19:06:13.505Z,6.80
2022-11-14T19:09:05.560Z,6.80
2022-11-14T19:12:12.081Z,6.80
2022-11-14T19:14:58.934Z,6.80
2022-11-14T19:17:48.406Z,6.70
2022-11-14T19:20:34.957Z,6.80
2022-11-14T19:23:21.355Z,6.70
2022-11-14T19:26:10.214Z,6.70
2022-11-14T19:28:57.420Z,6.80
2022-11-14T19:31:44.480Z,6.80
2022-11-14T19:34:31.069Z,6.80
2022-11-14T19:37:17.819Z,6.80
2022-11-14T19:40:05.415Z,6.80
2022-11-14T19:43:00.241Z,6.90
2022-11-14T19:45:47.043Z,6.90
2022-11-14T19:48:34.336Z,6.90
2022-11-14T19:51:22.498Z,6.90
2022-11-14T19:54:10.999Z,7.00
2022-11-14T19:56:57.411Z,7.00
2022-11-14T19:59:45.322Z,7.00
2022-11-14T20:02:31.787Z,7.00
2022-11-14T20:05:18.476Z,7.00
2022-11-14T20:08:05.485Z,7.00
2022-11-14T20:10:59.296Z,7.00
2022-11-14T20:13:46.769Z,7.00
2022-11-14T20:16:36.869Z,7.00
2022-11-14T20:19:23.594Z,7.00
2022-11-14T20:22:11.065Z,7.00
2022-11-14T20:24:57.501Z,7.00
2022-11-14T20:27:44.244Z,7.00
2022-11-14T20:30:31.157Z,7.00
2022-11-14T20:33:19.154Z,7.00
2022-11-14T20:36:08.794Z,6.90
2022-11-14T20:38:57.653Z,6.90
2022-11-14T20:41:45.179Z,7.00
2022-11-14T20:44:31.648Z,6.90
2022-11-14T20:47:18.453Z,6.90
2022-11-14T20:50:07.138Z,6.90
2022-11-14T20:52:54.122Z,6.90
2022-11-14T20:55:44.160Z,6.90
2022-11-14T20:58:31.505Z,6.90
2022-11-14T21:01:18.668Z,6.90
2022-11-14T21:04:05.701Z,6.90
2022-11-14T21:06:53.596Z,6.90
2022-11-14T21:09:40.451Z,6.90
2022-11-14T21:12:26.941Z,7.00
2022-11-14T21:15:13.478Z,7.00
2022-11-14T21:18:00.166Z,7.00
2022-11-14T21:20:47.004Z,7.00
2022-11-14T21:23:35.331Z,7.00
2022-11-14T21:26:23.940Z,7.10
2022-11-14T21:29:13.130Z,7.10
2022-11-14T21:31:59.654Z,7.10
2022-11-14T21:34:46.156Z,7.10
2022-11-14T21:37:32.758Z,7.10
2022-11-14T21:40:20.747Z,7.10
2022-11-14T21:43:07.176Z,7.20
2022-11-14T21:45:58.752Z,7.10
2022-11-14T21:48:47.249Z,7.20
2022-11-14T21:51:33.604Z,7.20
2022-11-14T21:54:20.029Z,7.20
2022-11-14T21:57:10.157Z,7.20
2022-11-14T21:59:57.231Z,7.20
2022-11-14T22:03:01.038Z,7.20
2022-11-14T22:05:47.611Z,7.20
2022-11-14T22:08:34.051Z,7.30
2022-11-14T22:11:20.393Z,7.30
2022-11-14T22:14:08.516Z,7.30
2022-11-14T22:16:55.346Z,7.30
2022-11-14T22:19:42.101Z,7.30
2022-11-14T22:22:28.560Z,7.40
2022-11-14T22:25:15.312Z,7.40
2022-11-14T22:28:02.048Z,7.40
2022-11-14T22:30:49.953Z,7.40
2022-11-14T22:33:41.518Z,7.40
2022-11-14T22:36:32.970Z,7.40
2022-11-14T22:39:19.735Z,7.50
2022-11-14T22:42:06.299Z,7.50
2022-11-14T22:44:52.945Z,7.40
2022-11-14T22:47:40.851Z,7.50
2022-11-14T22:50:27.544Z,7.50
2022-11-14T22:53:14.035Z,7.50
2022-11-14T22:56:01.088Z,7.50
2022-11-14T22:58:48.429Z,7.50
2022-11-14T23:01:35.077Z,7.50
2022-11-14T23:04:23.057Z,7.60
2022-11-14T23:07:10.014Z,7.60
2022-11-14T23:09:57.055Z,7.60
2022-11-14T23:12:43.640Z,7.60
2022-11-14T23:15:30.369Z,7.60
2022-11-14T23:18:17.991Z,7.60
2022-11-14T23:21:08.145Z,7.60
2022-11-14T23:23:55.671Z,7.60
2022-11-14T23:26:42.139Z,7.60
2022-11-14T23:29:28.430Z,7.60
2022-11-14T23:32:14.833Z,7.60
2022-11-14T23:35:01.324Z,7.50
2022-11-14T23:37:49.199Z,7.60
2022-11-14T23:40:35.904Z,7.60
2022-11-14T23:43:22.833Z,7.50
2022-11-14T23:46:09.455Z,7.50
2022-11-14T23:48:56.404Z,7.50
2022-11-14T23:51:43.056Z,7.50
2022-11-14T23:54:30.904Z,7.50
2022-11-14T23:57:17.596Z,7.50
